createdAt,value
2023-05-22T00:01:49.455Z,45.21
2023-05-22T00:04:21.602Z,45.08
2023-05-22T00:06:49.904Z,45.16
2023-05-22T00:09:18.025Z,45.17
2023-05-22T00:11:46.122Z,45.39
2023-05-22T00:14:14.487Z,45.44
2023-05-22T00:16:42.559Z,45.44
2023-05-22T00:19:16.545Z,45.56
2023-05-22T00:21:45.128Z,45.62
2023-05-22T00:24:13.092Z,45.65
2023-05-22T00:26:41.086Z,45.56
2023-05-22T00:29:09.474Z,45.69
2023-05-22T00:31:37.624Z,45.74
2023-05-22T00:34:05.592Z,45.65
2023-05-22T00:36:35.022Z,45.85
2023-05-22T00:39:02.964Z,45.94
2023-05-22T00:41:30.968Z,45.84
2023-05-22T00:43:58.872Z,46.01
2023-05-22T00:46:26.930Z,45.89
2023-05-22T00:48:54.900Z,45.89
2023-05-22T00:51:22.950Z,45.89
2023-05-22T00:53:53.183Z,45.83
2023-05-22T00:56:21.322Z,45.84
2023-05-22T00:58:49.821Z,46.02
2023-05-22T01:01:17.965Z,46.07
2023-05-22T01:03:46.941Z,45.89
2023-05-22T01:06:15.779Z,45.79
2023-05-22T01:08:44.720Z,45.93
2023-05-22T01:11:17.500Z,45.84
2023-05-22T01:13:49.804Z,45.71
2023-05-22T01:16:21.987Z,45.56
2023-05-22T01:18:55.124Z,45.58
2023-05-22T01:21:25.504Z,45.61
2023-05-22T01:24:37.312Z,45.51
2023-05-22T01:27:25.878Z,45.77
2023-05-22T01:30:03.022Z,45.61
2023-05-22T01:32:32.620Z,45.88
2023-05-22T01:35:02.120Z,45.89
2023-05-22T01:37:30.061Z,45.88
2023-05-22T01:39:58.013Z,45.76
2023-05-22T01:42:26.183Z,46.07
2023-05-22T01:44:54.974Z,45.91
2023-05-22T01:47:23.563Z,45.98
2023-05-22T01:49:53.782Z,45.90
2023-05-22T01:52:26.673Z,45.92
2023-05-22T01:54:58.358Z,45.79
2023-05-22T01:57:28.900Z,45.98
2023-05-22T02:00:02.421Z,46.03
2023-05-22T02:02:30.771Z,46.17
2023-05-22T02:05:00.994Z,46.40
2023-05-22T02:07:29.073Z,46.26
2023-05-22T02:09:57.579Z,46.31
2023-05-22T02:12:25.529Z,46.45
2023-05-22T02:14:53.441Z,46.40
2023-05-22T02:17:22.137Z,46.48
2023-05-22T02:19:50.119Z,46.67
2023-05-22T02:22:19.528Z,46.54
2023-05-22T02:24:48.100Z,46.67
2023-05-22T02:27:17.757Z,46.67
2023-05-22T02:29:45.722Z,46.71
2023-05-22T02:32:13.894Z,46.76
2023-05-22T02:34:42.793Z,46.72
2023-05-22T02:37:10.843Z,46.74
2023-05-22T02:39:40.162Z,46.69
2023-05-22T02:42:08.796Z,46.98
2023-05-22T02:44:37.006Z,47.11
2023-05-22T02:47:06.396Z,47.00
2023-05-22T02:49:34.509Z,47.12
2023-05-22T02:52:02.427Z,47.19
2023-05-22T02:54:30.433Z,47.37
2023-05-22T02:56:59.929Z,47.35
2023-05-22T02:59:27.994Z,47.28
2023-05-22T03:01:56.307Z,47.49
2023-05-22T03:04:25.214Z,47.86
2023-05-22T03:06:53.416Z,48.28
2023-05-22T03:09:21.401Z,48.17
2023-05-22T03:11:49.350Z,48.19
2023-05-22T03:14:19.542Z,48.28
2023-05-22T03:16:47.627Z,48.28
2023-05-22T03:19:16.375Z,48.12
2023-05-22T03:21:44.638Z,48.14
2023-05-22T03:24:12.741Z,48.40
2023-05-22T03:26:40.685Z,48.23
2023-05-22T03:29:12.622Z,48.20
2023-05-22T03:31:43.874Z,48.06
2023-05-22T03:34:15.051Z,48.21
2023-05-22T03:36:46.084Z,48.02
2023-05-22T03:39:17.089Z,47.91
2023-05-22T03:41:54.788Z,48.14
2023-05-22T03:44:24.678Z,47.69
2023-05-22T03:46:54.294Z,47.86
2023-05-22T03:49:22.354Z,47.93
2023-05-22T03:51:50.361Z,48.13
2023-05-22T03:54:18.349Z,48.02
2023-05-22T03:56:46.293Z,48.17
2023-05-22T03:59:14.375Z,48.11
2023-05-22T04:01:42.291Z,48.04
2023-05-22T04:04:12.208Z,48.11
2023-05-22T04:06:43.268Z,48.09
2023-05-22T04:09:14.082Z,48.13
2023-05-22T04:11:42.626Z,48.17
2023-05-22T04:14:10.661Z,48.35
2023-05-22T04:16:38.639Z,48.87
2023-05-22T04:19:06.755Z,48.84
2023-05-22T04:21:38.286Z,48.56
2023-05-22T04:24:09.523Z,48.76
2023-05-22T04:26:39.941Z,48.69
2023-05-22T04:29:10.452Z,48.93
2023-05-22T04:31:38.455Z,48.88
2023-05-22T04:34:06.591Z,48.81
2023-05-22T04:36:36.002Z,48.89
2023-05-22T04:39:05.045Z,49.38
2023-05-22T04:41:34.325Z,49.12
2023-05-22T04:44:04.051Z,49.46
2023-05-22T04:46:32.058Z,49.41
2023-05-22T04:49:02.155Z,49.52
2023-05-22T04:51:31.264Z,49.63
2023-05-22T04:54:00.814Z,49.64
2023-05-22T04:56:36.025Z,49.65
2023-05-22T04:59:08.998Z,49.71
2023-05-22T05:01:37.995Z,49.91
2023-05-22T05:04:06.381Z,49.78
2023-05-22T05:06:35.910Z,49.68
2023-05-22T05:09:05.832Z,49.94
2023-05-22T05:11:33.948Z,49.92
2023-05-22T05:14:01.927Z,49.98
2023-05-22T05:16:30.276Z,49.74
2023-05-22T05:18:58.337Z,50.10
2023-05-22T05:21:27.986Z,50.21
2023-05-22T05:23:59.199Z,50.05
2023-05-22T05:26:29.064Z,50.21
2023-05-22T05:28:57.479Z,50.03
2023-05-22T05:31:30.820Z,50.25
2023-05-22T05:34:13.499Z,50.40
2023-05-22T05:36:59.595Z,50.66
2023-05-22T05:39:27.640Z,50.81
2023-05-22T05:41:58.188Z,50.72
2023-05-22T05:44:26.432Z,50.75
2023-05-22T05:46:55.185Z,51.11
2023-05-22T05:49:23.340Z,51.01
2023-05-22T05:51:51.430Z,51.11
2023-05-22T05:54:21.760Z,50.98
2023-05-22T05:56:51.318Z,50.90
2023-05-22T05:59:20.715Z,51.06
2023-05-22T06:02:20.966Z,51.08
2023-05-22T06:04:53.865Z,51.19
2023-05-22T06:07:22.092Z,51.40
2023-05-22T06:09:53.440Z,51.52
2023-05-22T06:12:28.563Z,51.84
2023-05-22T06:14:57.947Z,51.87
2023-05-22T06:17:27.277Z,51.97
2023-05-22T06:19:55.540Z,51.90
2023-05-22T06:22:25.586Z,51.87
2023-05-22T06:24:54.871Z,51.89
2023-05-22T06:27:27.379Z,51.84
2023-05-22T06:29:57.822Z,51.83
2023-05-22T06:32:30.080Z,51.90
2023-05-22T06:34:58.881Z,51.92
2023-05-22T06:37:28.456Z,51.63
2023-05-22T06:39:56.474Z,51.60
2023-05-22T06:42:33.371Z,51.71
2023-05-22T06:45:22.815Z,51.52
2023-05-22T06:48:11.590Z,51.59
2023-05-22T06:50:49.307Z,51.48
2023-05-22T06:53:17.312Z,51.60
2023-05-22T06:55:45.526Z,51.76
2023-05-22T06:58:22.269Z,52.02
2023-05-22T07:00:54.174Z,52.01
2023-05-22T07:03:30.336Z,52.29
2023-05-22T07:06:18.540Z,52.04
2023-05-22T07:08:46.859Z,52.40
2023-05-22T07:11:14.821Z,52.33
2023-05-22T07:13:43.058Z,52.39
2023-05-22T07:16:12.618Z,52.33
2023-05-22T07:18:42.031Z,52.15
2023-05-22T07:21:10.314Z,52.17
2023-05-22T07:23:38.298Z,51.95
2023-05-22T07:26:07.745Z,52.24
2023-05-22T07:28:39.585Z,52.27
2023-05-22T07:31:15.297Z,52.24
2023-05-22T07:33:43.439Z,52.28
2023-05-22T07:36:12.230Z,52.07
2023-05-22T07:38:42.745Z,52.28
2023-05-22T07:41:10.909Z,52.22
2023-05-22T07:43:38.992Z,52.43
2023-05-22T07:46:09.402Z,52.69
2023-05-22T07:48:46.300Z,52.80
2023-05-22T07:51:14.761Z,52.59
2023-05-22T07:53:43.304Z,52.88
2023-05-22T07:56:11.351Z,52.67
2023-05-22T07:58:40.071Z,52.72
2023-05-22T08:01:09.583Z,52.68
2023-05-22T08:03:38.013Z,52.92
2023-05-22T08:06:08.574Z,52.75
2023-05-22T08:08:36.950Z,52.54
2023-05-22T08:11:05.277Z,52.35
2023-05-22T08:13:33.441Z,52.27
2023-05-22T08:16:01.788Z,52.20
2023-05-22T08:18:31.333Z,52.17
2023-05-22T08:21:00.301Z,52.02
2023-05-22T08:23:30.385Z,51.68
2023-05-22T08:25:59.296Z,51.69
2023-05-22T08:28:28.670Z,51.44
2023-05-22T08:30:56.793Z,50.87
2023-05-22T08:33:24.797Z,50.30
2023-05-22T08:35:53.865Z,50.07
2023-05-22T08:38:22.034Z,49.64
2023-05-22T08:40:51.516Z,49.58
2023-05-22T08:43:21.292Z,48.47
2023-05-22T08:45:52.387Z,46.73
2023-05-22T08:48:20.675Z,46.50
2023-05-22T08:50:48.742Z,45.49
2023-05-22T08:53:16.698Z,44.34
2023-05-22T08:55:44.804Z,43.29
2023-05-22T08:58:14.412Z,42.82
2023-05-22T09:00:42.516Z,42.22
2023-05-22T09:03:14.033Z,41.15
2023-05-22T09:05:44.205Z,41.42
2023-05-22T09:08:20.429Z,40.97
2023-05-22T09:10:49.542Z,40.20
2023-05-22T09:13:26.933Z,40.55
2023-05-22T09:15:59.899Z,40.80
2023-05-22T09:18:31.060Z,39.95
2023-05-22T09:21:00.042Z,40.35
2023-05-22T09:23:28.990Z,41.50
2023-05-22T09:25:57.276Z,41.86
2023-05-22T09:28:26.856Z,44.00
2023-05-22T09:30:55.503Z,44.93
2023-05-22T09:33:26.582Z,45.66
2023-05-22T09:35:54.832Z,46.09
2023-05-22T09:38:26.730Z,46.54
2023-05-22T09:40:56.161Z,46.38
2023-05-22T09:43:26.480Z,46.20
2023-05-22T09:45:58.012Z,45.50
2023-05-22T09:48:26.721Z,46.21
2023-05-22T09:50:54.937Z,46.24
2023-05-22T09:53:26.992Z,46.44
2023-05-22T09:55:55.988Z,46.46
2023-05-22T09:58:24.013Z,46.00
2023-05-22T10:00:54.589Z,45.92
2023-05-22T10:03:24.253Z,46.09
2023-05-22T10:08:26.125Z,45.91
2023-05-22T10:10:56.777Z,45.61
2023-05-22T10:13:25.181Z,45.21
2023-05-22T10:15:55.390Z,45.29
2023-05-22T10:18:26.201Z,45.43
2023-05-22T10:20:57.268Z,45.76
2023-05-22T10:23:25.677Z,45.67
2023-05-22T10:25:53.655Z,45.25
2023-05-22T10:28:24.886Z,45.45
2023-05-22T10:30:57.675Z,45.44
2023-05-22T10:33:46.087Z,44.78
2023-05-22T10:36:19.875Z,44.87
2023-05-22T10:39:02.377Z,44.66
2023-05-22T10:41:32.184Z,44.72
2023-05-22T10:44:01.102Z,44.46
2023-05-22T10:46:33.746Z,44.68
2023-05-22T10:49:01.987Z,44.41
2023-05-22T10:51:31.717Z,44.10
2023-05-22T10:54:01.217Z,43.50
2023-05-22T10:56:34.066Z,43.50
2023-05-22T10:59:05.002Z,42.82
2023-05-22T11:01:38.700Z,42.53
2023-05-22T11:04:22.613Z,41.94
2023-05-22T11:07:04.345Z,42.15
2023-05-22T11:09:32.900Z,42.51
2023-05-22T11:12:17.952Z,42.41
2023-05-22T11:14:50.522Z,42.49
2023-05-22T11:17:23.171Z,41.87
2023-05-22T11:20:05.249Z,42.02
2023-05-22T11:22:35.886Z,41.66
2023-05-22T11:25:08.983Z,41.99
2023-05-22T11:27:37.963Z,41.84
2023-05-22T11:30:07.333Z,41.84
2023-05-22T11:32:38.954Z,41.92
2023-05-22T11:35:10.731Z,42.49
2023-05-22T11:37:42.440Z,42.25
2023-05-22T11:40:12.108Z,42.23
2023-05-22T11:42:40.342Z,42.36
2023-05-22T11:45:10.966Z,42.71
2023-05-22T11:47:40.577Z,42.79
2023-05-22T11:50:11.805Z,41.48
2023-05-22T11:52:40.578Z,41.52
2023-05-22T11:55:09.817Z,41.51
2023-05-22T11:57:38.304Z,41.12
2023-05-22T12:00:09.164Z,41.07
2023-05-22T12:02:45.409Z,41.10
2023-05-22T12:05:14.107Z,40.14
2023-05-22T12:07:42.578Z,39.45
2023-05-22T12:10:11.502Z,39.54
2023-05-22T12:12:41.313Z,39.60
2023-05-22T12:15:10.928Z,38.83
2023-05-22T12:17:41.643Z,38.30
2023-05-22T12:20:13.823Z,38.38
2023-05-22T12:22:44.797Z,37.90
2023-05-22T12:25:17.236Z,37.32
2023-05-22T12:27:45.884Z,37.38
2023-05-22T12:30:14.902Z,38.00
2023-05-22T12:32:47.829Z,37.68
2023-05-22T12:35:17.991Z,37.65
2023-05-22T12:37:49.401Z,37.60
2023-05-22T12:40:17.796Z,37.45
2023-05-22T12:42:46.039Z,36.45
2023-05-22T12:45:14.283Z,36.45
2023-05-22T12:47:42.282Z,36.35
2023-05-22T12:50:10.575Z,36.17
2023-05-22T12:52:40.394Z,36.29
2023-05-22T12:55:10.267Z,36.32
2023-05-22T12:57:38.417Z,36.03
2023-05-22T13:00:07.800Z,35.97
2023-05-22T13:02:35.866Z,35.32
2023-05-22T13:05:04.398Z,35.28
2023-05-22T13:07:32.757Z,35.44
2023-05-22T13:10:03.906Z,35.17
2023-05-22T13:12:32.434Z,35.41
2023-05-22T13:15:00.612Z,36.08
2023-05-22T13:17:28.948Z,35.84
2023-05-22T13:19:57.111Z,36.23
2023-05-22T13:22:25.517Z,36.33
2023-05-22T13:24:53.509Z,36.29
2023-05-22T13:27:22.999Z,35.67
2023-05-22T13:29:51.201Z,35.55
2023-05-22T13:32:20.161Z,35.56
2023-05-22T13:34:48.292Z,35.61
2023-05-22T13:37:16.464Z,35.44
2023-05-22T13:39:44.982Z,35.77
2023-05-22T13:42:13.938Z,35.00
2023-05-22T13:44:43.292Z,34.94
2023-05-22T13:47:11.807Z,35.02
2023-05-22T13:49:40.149Z,35.46
2023-05-22T13:52:08.419Z,35.61
2023-05-22T13:54:36.510Z,35.58
2023-05-22T13:57:04.595Z,34.85
2023-05-22T13:59:33.204Z,34.52
2023-05-22T14:02:02.782Z,35.13
2023-05-22T14:04:31.006Z,34.61
2023-05-22T14:06:59.160Z,34.26
2023-05-22T14:09:27.365Z,34.11
2023-05-22T14:11:56.343Z,33.34
2023-05-22T14:14:24.716Z,33.55
2023-05-22T14:16:52.906Z,33.20
2023-05-22T14:19:22.486Z,32.75
2023-05-22T14:21:52.310Z,32.77
2023-05-22T14:24:20.733Z,32.72
2023-05-22T14:26:48.753Z,32.52
2023-05-22T14:29:16.908Z,32.49
2023-05-22T14:31:45.422Z,33.07
2023-05-22T14:34:13.863Z,32.67
2023-05-22T14:36:43.269Z,32.87
2023-05-22T14:39:11.515Z,32.58
2023-05-22T14:41:41.159Z,33.17
2023-05-22T14:44:09.421Z,33.42
2023-05-22T14:46:37.760Z,33.29
2023-05-22T14:49:05.925Z,33.29
2023-05-22T14:51:33.981Z,33.25
2023-05-22T14:54:03.652Z,32.83
2023-05-22T14:56:31.720Z,32.16
2023-05-22T14:59:00.071Z,31.73
2023-05-22T15:01:28.218Z,31.37
2023-05-22T15:03:56.260Z,31.69
2023-05-22T15:06:24.344Z,31.87
2023-05-22T15:08:52.420Z,31.92
2023-05-22T15:11:22.663Z,31.64
2023-05-22T15:13:50.765Z,32.36
2023-05-22T15:16:18.769Z,32.48
2023-05-22T15:18:47.055Z,32.90
2023-05-22T15:21:15.465Z,32.93
2023-05-22T15:23:43.553Z,31.90
2023-05-22T15:26:12.184Z,32.64
2023-05-22T15:28:42.894Z,32.48
2023-05-22T15:31:12.100Z,32.55
2023-05-22T15:33:40.190Z,33.04
2023-05-22T15:36:09.229Z,32.92
2023-05-22T15:38:38.491Z,32.61
2023-05-22T15:41:08.957Z,32.65
2023-05-22T15:43:36.963Z,32.67
2023-05-22T15:46:08.647Z,32.72
2023-05-22T15:48:36.852Z,32.43
2023-05-22T15:51:07.116Z,32.94
2023-05-22T15:53:35.568Z,33.25
2023-05-22T15:56:03.581Z,33.35
2023-05-22T15:58:31.826Z,33.68
2023-05-22T16:01:02.465Z,33.49
2023-05-22T16:03:32.106Z,33.61
2023-05-22T16:06:00.440Z,33.81
2023-05-22T16:08:28.690Z,34.08
2023-05-22T16:10:59.229Z,33.83
2023-05-22T16:13:27.769Z,34.37
2023-05-22T16:15:55.916Z,35.09
2023-05-22T16:18:33.345Z,35.48
2023-05-22T16:21:02.725Z,35.37
2023-05-22T16:23:30.733Z,35.20
2023-05-22T16:26:01.471Z,35.81
2023-05-22T16:28:29.564Z,36.40
2023-05-22T16:30:57.569Z,36.69
2023-05-22T16:33:28.108Z,36.64
2023-05-22T16:35:57.429Z,36.90
2023-05-22T16:38:27.345Z,38.01
2023-05-22T16:40:55.815Z,38.76
2023-05-22T16:43:23.869Z,38.97
2023-05-22T16:45:53.272Z,38.48
2023-05-22T16:48:21.392Z,38.41
2023-05-22T16:50:50.172Z,38.15
2023-05-22T16:53:20.073Z,37.97
2023-05-22T16:55:49.677Z,37.38
2023-05-22T16:58:17.734Z,36.94
2023-05-22T17:00:45.943Z,36.77
2023-05-22T17:03:14.164Z,36.57
2023-05-22T17:05:42.588Z,36.73
2023-05-22T17:08:11.385Z,36.93
2023-05-22T17:10:39.345Z,37.06
2023-05-22T17:13:09.251Z,36.82
2023-05-22T17:15:37.402Z,36.67
2023-05-22T17:18:05.887Z,36.73
2023-05-22T17:20:34.174Z,36.67
2023-05-22T17:23:02.180Z,36.47
2023-05-22T17:25:31.371Z,37.13
2023-05-22T17:27:59.584Z,36.95
2023-05-22T17:30:29.472Z,37.19
2023-05-22T17:32:58.042Z,37.37
2023-05-22T17:35:26.392Z,37.60
2023-05-22T17:37:54.512Z,37.24
2023-05-22T17:42:53.657Z,38.09
2023-05-22T17:45:21.773Z,38.17
2023-05-22T17:47:51.149Z,38.07
2023-05-22T17:50:21.078Z,38.07
2023-05-22T17:52:49.214Z,38.01
2023-05-22T17:55:17.647Z,37.86
2023-05-22T17:57:46.279Z,37.92
2023-05-22T18:00:15.866Z,38.38
2023-05-22T18:02:44.300Z,38.23
2023-05-22T18:05:13.815Z,37.90
2023-05-22T18:07:41.875Z,37.82
2023-05-22T18:10:11.628Z,37.59
2023-05-22T18:12:42.352Z,37.08
2023-05-22T18:15:12.228Z,37.17
2023-05-22T18:17:41.236Z,37.06
2023-05-22T18:20:11.917Z,37.37
2023-05-22T18:22:41.452Z,36.95
2023-05-22T18:25:11.107Z,37.23
2023-05-22T18:27:39.165Z,37.61
2023-05-22T18:30:09.014Z,38.00
2023-05-22T18:32:37.301Z,38.18
2023-05-22T18:35:06.036Z,38.50
2023-05-22T18:37:34.316Z,38.21
2023-05-22T18:40:09.467Z,38.24
2023-05-22T18:42:38.038Z,37.90
2023-05-22T18:45:07.725Z,37.85
2023-05-22T18:47:35.926Z,38.03
2023-05-22T18:50:08.522Z,38.09
2023-05-22T18:52:37.118Z,38.27
2023-05-22T18:55:10.494Z,38.29
2023-05-22T18:57:39.048Z,38.31
2023-05-22T19:00:10.235Z,38.43
2023-05-22T19:02:40.032Z,38.40
2023-05-22T19:05:08.819Z,38.76
2023-05-22T19:07:36.980Z,38.81
2023-05-22T19:10:08.989Z,38.91
2023-05-22T19:12:55.279Z,39.01
2023-05-22T19:15:23.727Z,38.95
2023-05-22T19:17:51.973Z,38.93
2023-05-22T19:20:20.011Z,38.90
2023-05-22T19:22:48.452Z,39.10
2023-05-22T19:25:21.061Z,39.30
2023-05-22T19:27:49.470Z,39.38
2023-05-22T19:30:19.032Z,39.69
2023-05-22T19:32:49.605Z,39.76
2023-05-22T19:35:17.899Z,39.64
2023-05-22T19:37:46.809Z,40.07
2023-05-22T19:40:15.014Z,39.90
2023-05-22T19:42:45.842Z,40.22
2023-05-22T19:45:17.701Z,40.37
2023-05-22T19:47:45.838Z,40.39
2023-05-22T19:50:14.145Z,40.55
2023-05-22T19:52:44.975Z,40.81
2023-05-22T19:55:13.035Z,40.80
2023-05-22T19:57:44.335Z,40.80
2023-05-22T20:00:15.051Z,41.30
2023-05-22T20:02:43.318Z,41.14
2023-05-22T20:05:13.088Z,41.34
2023-05-22T20:07:42.452Z,41.49
2023-05-22T20:10:11.358Z,41.85
2023-05-22T20:12:39.571Z,42.28
2023-05-22T20:15:10.584Z,42.42
2023-05-22T20:17:41.707Z,42.78
2023-05-22T20:20:11.474Z,42.63
2023-05-22T20:22:39.913Z,43.12
2023-05-22T20:25:08.821Z,42.60
2023-05-22T20:27:36.884Z,42.75
2023-05-22T20:30:06.621Z,42.86
2023-05-22T20:32:35.177Z,42.92
2023-05-22T20:35:07.111Z,43.53
2023-05-22T20:37:35.823Z,43.37
2023-05-22T20:40:04.372Z,44.11
2023-05-22T20:42:32.847Z,44.14
2023-05-22T20:45:00.876Z,44.29
2023-05-22T20:47:28.944Z,44.23
2023-05-22T20:49:57.079Z,44.27
2023-05-22T20:52:30.344Z,44.31
2023-05-22T20:54:58.423Z,44.43
2023-05-22T20:57:27.434Z,44.66
2023-05-22T20:59:56.062Z,44.29
2023-05-22T21:02:24.045Z,44.05
2023-05-22T21:04:53.568Z,43.92
2023-05-22T21:07:21.902Z,43.97
2023-05-22T21:09:51.271Z,44.05
2023-05-22T21:12:19.329Z,44.24
2023-05-22T21:14:47.391Z,44.01
2023-05-22T21:17:16.323Z,43.92
2023-05-22T21:19:44.640Z,44.00
2023-05-22T21:22:12.605Z,44.05
2023-05-22T21:24:40.568Z,43.94
2023-05-22T21:27:10.247Z,44.04
2023-05-22T21:29:38.503Z,44.01
2023-05-22T21:32:07.221Z,44.35
2023-05-22T21:34:35.685Z,44.00
2023-05-22T21:37:03.858Z,44.15
2023-05-22T21:39:37.864Z,44.04
2023-05-22T21:42:07.031Z,44.00
2023-05-22T21:44:38.758Z,44.02
2023-05-22T21:47:09.456Z,43.99
2023-05-22T21:49:39.597Z,43.82
2023-05-22T21:54:56.097Z,43.91
2023-05-22T21:57:24.542Z,43.89
2023-05-22T21:59:56.183Z,43.87
2023-05-22T22:02:26.117Z,43.90
2023-05-22T22:04:54.217Z,43.95
2023-05-22T22:07:22.276Z,44.17
2023-05-22T22:09:50.798Z,43.90
2023-05-22T22:12:18.818Z,43.95
2023-05-22T22:14:46.883Z,43.83
2023-05-22T22:17:16.898Z,43.58
2023-05-22T22:19:45.687Z,43.52
2023-05-22T22:22:13.764Z,43.48
2023-05-22T22:24:41.780Z,43.77
2023-05-22T22:27:09.819Z,43.69
2023-05-22T22:29:38.537Z,43.85
2023-05-22T22:32:06.973Z,43.89
2023-05-22T22:34:36.606Z,43.97
2023-05-22T22:37:04.994Z,43.91
2023-05-22T22:39:32.964Z,44.08
2023-05-22T22:42:05.178Z,44.06
2023-05-22T22:44:33.271Z,44.20
2023-05-22T22:47:02.901Z,44.30
2023-05-22T22:49:31.622Z,44.65
2023-05-22T22:52:00.941Z,44.67
2023-05-22T22:54:29.116Z,45.06
2023-05-22T22:56:57.131Z,45.43
2023-05-22T22:59:25.278Z,45.71
2023-05-22T23:01:53.611Z,45.93
2023-05-22T23:04:21.889Z,45.66
2023-05-22T23:06:49.941Z,45.70
2023-05-22T23:09:20.230Z,45.66
2023-05-22T23:11:48.230Z,45.59
2023-05-22T23:14:17.821Z,45.38
2023-05-22T23:16:46.384Z,45.55
2023-05-22T23:19:15.352Z,45.55
2023-05-22T23:21:43.367Z,45.50
2023-05-22T23:24:11.434Z,45.38
2023-05-22T23:26:42.271Z,45.63
2023-05-22T23:29:10.261Z,45.49
2023-05-22T23:31:40.453Z,45.64
2023-05-22T23:34:08.591Z,45.99
2023-05-22T23:36:37.076Z,45.88
2023-05-22T23:39:06.478Z,45.87
2023-05-22T23:41:35.464Z,45.99
2023-05-22T23:44:05.180Z,46.13
2023-05-22T23:46:33.415Z,46.25
2023-05-22T23:49:01.448Z,46.23
2023-05-22T23:51:29.679Z,46.21
2023-05-22T23:53:57.664Z,46.00
2023-05-22T23:56:26.496Z,46.25
2023-05-22T23:58:54.482Z,46.63
